Time;durP1;ratioP1;P1;durP2;ratioP2;P2;SDS_P1;SDS_P2;PMS_P1;PMS_P2;Temp;Humidity;BMP_temperature;BMP_pressure;BME280_temperature;BME280_humidity;BME280_pressure;Samples;Min_cycle;Max_cycle;Signal;HPM_P1;HPM_P2
2022/09/01 03:01:29;;;;;;;;;;;;;;;;;;;;;
2022/09/01 03:03:57;;;;;;;3.25;2.38;;;13.60;99.90;;;;;;4900985;29;20120;-82
2022/09/01 03:06:24;;;;;;;7.03;2.47;;;13.50;99.90;;;;;;4885387;29;20044;-85
2022/09/01 03:08:51;;;;;;;4.72;2.03;;;13.50;99.90;;;;;;4900112;29;20044;-85
2022/09/01 03:11:17;;;;;;;5.35;2.65;;;13.40;99.90;;;;;;4900789;29;20074;-85
2022/09/01 03:13:46;;;;;;;5.45;2.20;;;13.40;99.90;;;;;;4918240;29;20454;-85
2022/09/01 03:16:12;;;;;;;4.43;2.20;;;13.40;99.90;;;;;;4900648;29;20099;-85
2022/09/01 03:18:38;;;;;;;2.78;2.10;;;13.40;99.90;;;;;;4900557;29;20044;-85
2022/09/01 03:21:05;;;;;;;2.55;1.90;;;13.40;99.90;;;;;;4884990;29;20076;-86
2022/09/01 03:23:32;;;;;;;2.97;2.03;;;13.30;99.90;;;;;;4917544;29;20480;-86
2022/09/01 03:26:00;;;;;;;3.33;2.10;;;13.30;99.90;;;;;;4917375;29;20408;-85
2022/09/01 03:28:25;;;;;;;3.25;2.00;;;13.30;99.90;;;;;;4917618;29;20067;-86
2022/09/01 03:30:54;;;;;;;5.10;2.10;;;13.30;99.90;;;;;;4917387;29;20480;-86
2022/09/01 03:33:22;;;;;;;4.18;1.90;;;13.30;99.90;;;;;;4900556;29;20404;-86
2022/09/01 03:35:48;;;;;;;4.35;2.38;;;13.30;99.90;;;;;;4900288;29;20048;-85
2022/09/01 03:38:23;;;;;;;2.75;1.90;;;13.40;99.90;;;;;;4900405;29;20059;-85
2022/09/01 03:40:51;;;;;;;3.10;1.90;;;13.40;99.90;;;;;;4900531;29;20119;-84
2022/09/01 03:43:22;;;;;;;3.28;1.92;;;13.30;99.90;;;;;;4917539;29;20095;-83
2022/09/01 03:45:47;;;;;;;3.42;1.73;;;13.40;99.90;;;;;;4884766;29;20468;-83
2022/09/01 03:48:15;;;;;;;2.88;1.55;;;13.40;99.90;;;;;;4917221;29;20044;-82
2022/09/01 03:50:44;;;;;;;4.65;1.92;;;13.40;99.90;;;;;;4900186;29;20143;-82
2022/09/01 03:53:12;;;;;;;6.82;1.90;;;13.40;99.90;;;;;;4900268;29;20057;-83
2022/09/01 03:55:38;;;;;;;3.22;2.00;;;13.30;99.90;;;;;;4900181;29;20048;-82
2022/09/01 03:58:07;;;;;;;3.88;2.08;;;13.30;99.90;;;;;;4900090;29;20043;-82
2022/09/01 04:00:55;;;;;;;4.53;2.60;;;13.30;99.90;;;;;;4900096;29;20084;-83
2022/09/01 04:03:27;;;;;;;3.28;2.20;;;13.30;99.90;;;;;;4899867;29;20091;-83
2022/09/01 04:05:53;;;;;;;4.35;2.10;;;13.30;99.90;;;;;;4900521;29;20214;-82
2022/09/01 04:08:20;;;;;;;5.22;2.38;;;13.20;99.90;;;;;;4899985;29;20075;-83
2022/09/01 04:10:51;;;;;;;4.68;2.28;;;13.20;99.90;;;;;;4900341;29;20048;-83
2022/09/01 04:13:38;;;;;;;3.20;2.25;;;13.20;99.90;;;;;;4916890;29;20198;-83
2022/09/01 04:18:03;;;;;;;5.55;2.15;;;13.10;99.90;;;;;;4900006;29;20095;-83
2022/09/01 04:18:53;;;;;;;7.50;2.30;;;13.10;99.90;;;;;;4901351;29;20059;-82
2022/09/01 04:21:18;;;;;;;4.55;1.95;;;13.10;99.90;;;;;;4903629;29;20052;-83
2022/09/01 04:23:44;;;;;;;3.30;2.38;;;13.10;99.90;;;;;;4903977;29;20099;-82
2022/09/01 04:26:13;;;;;;;5.70;3.05;;;13.00;99.90;;;;;;4903803;29;20048;-83
2022/09/01 04:28:49;;;;;;;3.83;2.20;;;13.00;99.90;;;;;;4888215;29;20124;-83
2022/09/01 04:31:20;;;;;;;6.43;2.22;;;13.00;99.90;;;;;;4903733;29;20083;-83
2022/09/01 04:33:51;;;;;;;6.00;2.42;;;12.90;99.90;;;;;;4888063;29;20056;-83
2022/09/01 04:36:29;;;;;;;5.70;2.28;;;12.90;99.90;;;;;;4920595;29;20130;-82
2022/09/01 04:39:00;;;;;;;7.35;2.53;;;12.90;99.90;;;;;;4903541;29;20059;-83
2022/09/01 04:41:32;;;;;;;4.07;2.50;;;12.90;99.90;;;;;;4903002;29;20048;-82
2022/09/01 04:44:03;;;;;;;4.35;2.08;;;12.80;99.90;;;;;;4903227;29;20072;-83
2022/09/01 04:46:33;;;;;;;3.10;2.10;;;12.80;99.90;;;;;;4903108;29;20044;-82
2022/09/01 04:49:06;;;;;;;5.07;2.03;;;12.80;99.90;;;;;;4902997;29;20412;-84
2022/09/01 04:51:32;;;;;;;4.82;2.20;;;12.80;99.90;;;;;;4887646;29;20121;-82
2022/09/01 04:54:00;;;;;;;5.35;2.40;;;12.70;99.90;;;;;;4902940;29;20052;-82
2022/09/01 04:56:27;;;;;;;6.07;2.70;;;12.70;99.90;;;;;;4919961;29;20040;-83
2022/09/01 04:58:54;;;;;;;3.65;2.47;;;12.70;99.90;;;;;;4903074;29;20040;-83
2022/09/01 05:01:24;;;;;;;5.10;2.25;;;12.70;99.90;;;;;;4919902;29;20075;-83
2022/09/01 05:03:58;;;;;;;4.07;2.20;;;12.70;99.90;;;;;;4903162;29;20139;-82
2022/09/01 05:06:23;;;;;;;6.55;2.60;;;12.70;99.90;;;;;;4887262;29;20051;-84
2022/09/01 05:08:50;;;;;;;3.45;2.40;;;12.70;99.90;;;;;;4903054;29;20048;-83
2022/09/01 05:11:16;;;;;;;4.95;2.30;;;12.70;99.90;;;;;;4919750;29;20122;-84
2022/09/01 05:13:44;;;;;;;5.38;2.55;;;12.70;99.90;;;;;;4920053;29;20462;-83
2022/09/01 05:16:14;;;;;;;3.28;2.40;;;12.70;99.90;;;;;;4920031;29;20128;-83
2022/09/01 05:18:45;;;;;;;8.32;3.22;;;12.70;99.90;;;;;;4902643;29;20510;-82
2022/09/01 05:21:11;;;;;;;6.10;2.50;;;12.70;99.90;;;;;;4919809;29;20044;-83
2022/09/01 05:23:39;;;;;;;3.72;2.20;;;12.70;99.90;;;;;;4902470;29;20403;-82
2022/09/01 05:26:15;;;;;;;5.32;2.85;;;12.70;99.90;;;;;;4902516;29;20044;-83
2022/09/01 05:28:42;;;;;;;4.32;2.58;;;12.70;99.90;;;;;;4902383;29;20048;-83
2022/09/01 05:31:08;;;;;;;5.38;2.47;;;12.70;99.90;;;;;;4918820;29;20048;-83
2022/09/01 05:33:35;;;;;;;6.47;2.53;;;12.70;99.90;;;;;;4902388;29;20048;-83
2022/09/01 05:36:06;;;;;;;5.28;2.55;;;12.80;99.90;;;;;;4919560;29;20043;-83
2022/09/01 05:38:33;;;;;;;5.00;2.40;;;12.70;99.90;;;;;;4902364;29;20048;-83
2022/09/01 05:41:05;;;;;;;5.25;2.30;;;12.80;99.90;;;;;;4902214;29;20083;-83
2022/09/01 05:43:32;;;;;;;4.50;2.50;;;12.80;99.90;;;;;;4893768;29;20051;-79
2022/09/01 05:45:59;;;;;;;4.72;2.35;;;12.80;99.90;;;;;;4914749;29;20056;-79
2022/09/01 05:48:30;;;;;;;4.07;2.70;;;12.80;99.90;;;;;;4908194;29;20465;-82
2022/09/01 05:50:58;;;;;;;4.60;2.20;;;12.80;99.90;;;;;;4903744;29;20052;-86
2022/09/01 05:53:26;;;;;;;4.18;2.40;;;12.90;99.90;;;;;;4903143;29;20041;-84
2022/09/01 05:55:56;;;;;;;6.18;2.60;;;12.90;99.90;;;;;;4902260;29;20056;-83
2022/09/01 05:58:26;;;;;;;3.90;2.08;;;12.90;99.90;;;;;;4903285;29;20421;-83
2022/09/01 06:00:58;;;;;;;4.82;2.22;;;12.90;99.90;;;;;;4901865;29;20056;-83
2022/09/01 06:03:25;;;;;;;3.85;2.40;;;12.90;99.90;;;;;;4901977;29;20079;-80
2022/09/01 06:05:51;;;;;;;5.03;2.67;;;12.90;99.90;;;;;;4901782;29;20052;-84
2022/09/01 06:08:27;;;;;;;2.80;2.00;;;12.90;99.90;;;;;;4901873;29;20060;-84
2022/09/01 06:10:53;;;;;;;3.83;2.20;;;13.00;99.90;;;;;;4886735;29;20532;-82
2022/09/01 06:13:20;;;;;;;3.83;2.15;;;13.00;99.90;;;;;;4918931;29;20067;-84
2022/09/01 06:15:53;;;;;;;5.53;2.22;;;13.00;99.90;;;;;;4902224;29;20437;-83
2022/09/01 06:18:20;;;;;;;5.47;2.55;;;13.10;99.90;;;;;;4918936;29;20551;-86
2022/09/01 06:20:48;;;;;;;4.88;2.42;;;13.10;99.90;;;;;;4902281;29;20059;-83
2022/09/01 06:23:16;;;;;;;4.97;2.15;;;13.20;99.90;;;;;;4901881;29;20051;-83
2022/09/01 06:25:46;;;;;;;5.18;2.17;;;13.20;99.90;;;;;;4901751;29;20050;-84
2022/09/01 06:28:19;;;;;;;5.28;2.47;;;13.30;99.90;;;;;;4901761;29;20078;-82
2022/09/01 06:30:46;;;;;;;5.15;2.08;;;13.30;99.90;;;;;;4902440;29;20056;-84
2022/09/01 06:33:12;;;;;;;5.15;2.20;;;13.30;99.90;;;;;;4902296;29;20123;-84
2022/09/01 06:35:40;;;;;;;5.15;2.35;;;13.30;99.90;;;;;;4886596;29;20055;-84
2022/09/01 06:38:08;;;;;;;3.35;2.00;;;13.40;99.90;;;;;;4902131;29;20506;-84
2022/09/01 06:40:35;;;;;;;11.20;3.08;;;13.40;99.90;;;;;;4919172;29;20044;-84
2022/09/01 06:43:06;;;;;;;3.40;1.90;;;13.50;99.90;;;;;;4886563;29;20122;-84
2022/09/01 06:45:34;;;;;;;4.60;1.70;;;13.50;99.90;;;;;;4919256;29;20044;-83
2022/09/01 06:48:00;;;;;;;4.70;1.80;;;13.60;99.90;;;;;;4918507;29;20044;-83
2022/09/01 06:50:26;;;;;;;3.80;2.05;;;13.70;99.90;;;;;;4901430;29;20456;-84
2022/09/01 06:53:09;;;;;;;4.45;2.63;;;13.80;99.90;;;;;;4901107;29;20500;-84
2022/09/01 06:55:37;;;;;;;3.85;1.90;;;13.80;99.90;;;;;;4901784;29;20066;-84
2022/09/01 06:58:08;;;;;;;2.95;1.90;;;13.90;99.90;;;;;;4885608;29;20036;-78
2022/09/01 07:00:41;;;;;;;4.13;2.05;;;13.90;99.90;;;;;;4917702;29;20044;-82
2022/09/01 07:03:09;;;;;;;2.72;1.80;;;14.00;99.90;;;;;;4900925;29;20040;-80
2022/09/01 07:05:44;;;;;;;3.90;2.00;;;14.10;99.90;;;;;;4902058;29;20067;-82
2022/09/01 07:08:18;;;;;;;7.47;1.92;;;14.10;99.90;;;;;;4886628;29;20067;-84
2022/09/01 07:10:50;;;;;;;3.88;1.98;;;14.20;99.90;;;;;;4901004;29;20047;-75
2022/09/01 07:13:24;;;;;;;4.15;1.80;;;14.20;99.90;;;;;;4918176;29;20515;-87
2022/09/01 07:15:57;;;;;;;4.70;1.90;;;14.30;99.90;;;;;;4902713;29;20103;-88
2022/09/01 07:18:24;;;;;;;2.95;1.85;;;14.30;99.90;;;;;;4886682;29;20051;-88
2022/09/01 07:20:52;;;;;;;4.32;1.83;;;14.40;99.90;;;;;;4900122;29;20458;-89
2022/09/01 07:23:19;;;;;;;5.95;2.00;;;14.50;99.90;;;;;;4899435;29;20043;-87
2022/09/01 07:25:47;;;;;;;2.63;1.70;;;14.50;99.90;;;;;;4900839;29;20058;-84
2022/09/01 07:28:14;;;;;;;3.90;1.75;;;14.60;99.90;;;;;;4900466;29;20058;-88
2022/09/01 07:30:47;;;;;;;4.03;2.15;;;14.70;99.90;;;;;;4900732;29;20068;-88
2022/09/01 07:33:14;;;;;;;3.17;1.80;;;14.80;99.90;;;;;;4885820;29;20131;-87
2022/09/01 07:35:41;;;;;;;2.88;1.60;;;14.80;99.90;;;;;;4900948;29;20048;-88
2022/09/01 07:38:08;;;;;;;3.85;1.90;;;14.80;99.90;;;;;;4917828;29;20044;-87
2022/09/01 07:40:37;;;;;;;3.22;1.60;;;14.90;99.90;;;;;;4900845;29;20051;-86
2022/09/01 07:43:14;;;;;;;4.93;1.98;;;15.00;99.90;;;;;;4900918;29;20040;-85
2022/09/01 07:45:45;;;;;;;4.63;1.50;;;15.10;99.90;;;;;;4901055;29;20052;-87
2022/09/01 07:48:11;;;;;;;3.35;1.50;;;15.30;99.90;;;;;;4901031;29;20044;-85
2022/09/01 07:50:46;;;;;;;2.60;1.38;;;15.30;99.90;;;;;;4900801;29;20044;-86
2022/09/01 07:53:23;;;;;;;5.37;1.67;;;15.40;99.90;;;;;;4901020;29;20477;-85
2022/09/01 07:55:54;;;;;;;3.58;1.50;;;15.50;99.90;;;;;;4905107;29;20055;-84
2022/09/01 07:58:25;;;;;;;3.28;1.50;;;15.60;99.90;;;;;;4921847;29;20047;-87
2022/09/01 08:00:52;;;;;;;3.10;1.38;;;15.70;99.90;;;;;;4921536;29;20040;-85
2022/09/01 08:03:20;;;;;;;4.03;1.50;;;15.80;99.90;;;;;;4905380;29;20055;-86
2022/09/01 08:05:47;;;;;;;3.30;1.50;;;15.90;99.90;;;;;;4904780;29;20044;-86
2022/09/01 08:08:13;;;;;;;5.50;1.40;;;16.00;99.90;;;;;;4889329;29;20040;-86
2022/09/01 08:10:40;;;;;;;3.42;1.75;;;16.10;99.90;;;;;;4904755;29;20055;-86
2022/09/01 08:13:07;;;;;;;3.88;1.23;;;16.20;99.90;;;;;;4904399;29;20056;-87
2022/09/01 08:15:33;;;;;;;2.53;1.05;;;16.30;99.90;;;;;;4904632;29;20052;-86
2022/09/01 08:17:58;;;;;;;3.38;1.30;;;16.40;99.90;;;;;;4904432;29;20044;-87
2022/09/01 08:20:24;;;;;;;3.17;1.20;;;16.50;99.90;;;;;;4889404;29;20074;-86
2022/09/01 08:22:50;;;;;;;5.05;1.20;;;16.60;99.90;;;;;;4920922;29;20040;-86
2022/09/01 08:25:15;;;;;;;2.95;1.40;;;16.70;99.90;;;;;;4903546;29;20162;-85
2022/09/01 08:27:41;;;;;;;5.55;1.30;;;16.80;99.90;;;;;;4903796;29;20072;-86
2022/09/01 08:30:09;;;;;;;2.63;1.10;;;16.90;99.90;;;;;;4903660;29;20046;-85
2022/09/01 08:32:36;;;;;;;2.30;1.02;;;17.10;99.90;;;;;;4920632;29;20047;-84
2022/09/01 08:35:03;;;;;;;4.50;1.17;;;17.10;99.90;;;;;;4903474;29;20048;-86
2022/09/01 08:37:31;;;;;;;2.40;1.20;;;17.30;99.90;;;;;;4903876;29;20048;-87
2022/09/01 08:39:56;;;;;;;3.55;1.52;;;17.50;99.90;;;;;;4920694;29;20055;-86
2022/09/01 08:42:40;;;;;;;4.20;1.17;;;17.50;99.90;;;;;;4887946;29;20040;-87
2022/09/01 08:45:19;;;;;;;4.38;1.15;;;17.60;99.90;;;;;;4920274;29;20047;-86
2022/09/01 08:47:46;;;;;;;9.80;1.25;;;17.90;99.90;;;;;;4903549;29;20091;-86
2022/09/01 08:50:13;;;;;;;5.38;1.10;;;18.00;99.90;;;;;;4903387;29;20048;-85
2022/09/01 08:52:44;;;;;;;2.78;0.90;;;18.10;99.90;;;;;;4920510;29;20044;-85
2022/09/01 08:55:26;;;;;;;2.63;0.80;;;18.30;99.90;;;;;;4903246;29;20068;-85
2022/09/01 08:57:56;;;;;;;3.15;1.10;;;18.40;99.90;;;;;;4903717;29;20048;-85
2022/09/01 09:00:25;;;;;;;2.75;1.20;;;18.50;99.90;;;;;;4903014;29;20070;-86
2022/09/01 09:03:25;;;;;;;6.30;0.90;;;18.80;99.90;;;;;;4903266;29;20048;-84
2022/09/01 09:06:13;;;;;;;2.47;0.90;;;18.90;99.90;;;;;;4902894;29;20063;-87
2022/09/01 09:09:03;;;;;;;4.85;0.93;;;19.10;99.90;;;;;;4903115;29;20492;-87
2022/09/01 09:12:09;;;;;;;3.38;0.98;;;19.30;99.90;;;;;;4920389;29;20091;-88
2022/09/01 09:14:50;;;;;;;;;;;19.50;99.90;;;;;;4919969;29;20135;-85
2022/09/01 09:17:20;;;;;;;2.42;0.80;;;19.70;99.90;;;;;;4902657;29;20438;-86
2022/09/01 09:19:45;;;;;;;3.03;1.15;;;19.90;99.90;;;;;;4902855;29;20043;-86
2022/09/01 09:22:15;;;;;;;1.90;0.70;;;20.10;99.90;;;;;;4887938;29;20076;-86
2022/09/01 09:24:57;;;;;;;2.25;1.10;;;20.30;99.90;;;;;;4888277;29;20036;-87
2022/09/01 09:27:35;;;;;;;2.25;0.80;;;20.40;99.90;;;;;;4887909;29;20056;-87
2022/09/01 09:30:22;;;;;;;1.40;0.80;;;20.50;99.90;;;;;;4903833;29;20054;-85
2022/09/01 09:33:33;;;;;;;3.40;0.80;;;20.70;99.90;;;;;;4903925;29;20044;-87
2022/09/01 09:36:18;;;;;;;3.17;0.68;;;20.90;99.90;;;;;;4906009;29;20561;-85
2022/09/01 09:38:45;;;;;;;1.52;0.60;;;21.00;99.90;;;;;;4903553;29;20480;-87
2022/09/01 09:41:16;;;;;;;1.70;0.70;;;21.20;99.90;;;;;;4903284;29;20044;-85
2022/09/01 09:43:43;;;;;;;3.38;0.80;;;21.30;99.90;;;;;;4887642;29;20115;-86
2022/09/01 09:46:35;;;;;;;2.45;0.85;;;21.40;99.90;;;;;;4903116;29;20044;-85
2022/09/01 09:49:25;;;;;;;3.17;0.70;;;21.60;99.90;;;;;;4887661;29;20044;-87
2022/09/01 09:52:08;;;;;;;2.22;0.82;;;21.80;99.90;;;;;;4902757;29;20052;-86
2022/09/01 09:54:39;;;;;;;2.20;0.70;;;21.90;99.90;;;;;;4903271;29;20048;-89
2022/09/01 09:57:07;;;;;;;3.10;0.93;;;22.00;99.90;;;;;;4903161;29;20054;-86
2022/09/01 09:59:52;;;;;;;3.95;0.60;;;22.10;99.90;;;;;;4903177;29;20123;-86
2022/09/01 10:02:42;;;;;;;4.90;0.93;;;22.20;99.90;;;;;;4902391;29;20111;-85
2022/09/01 10:05:43;;;;;;;1.27;0.60;;;22.40;99.90;;;;;;4902786;29;20040;-86
2022/09/01 10:08:25;;;;;;;3.28;0.80;;;22.50;99.90;;;;;;4920785;29;20083;-87
2022/09/01 10:10:52;;;;;;;1.58;0.60;;;22.60;99.90;;;;;;4903109;29;20079;-89
2022/09/01 10:13:22;;;;;;;2.17;0.77;;;22.80;99.90;;;;;;4920053;29;20040;-84
2022/09/01 10:15:53;;;;;;;2.85;0.55;;;22.90;99.90;;;;;;4887423;29;20396;-86
2022/09/01 10:18:22;;;;;;;1.67;0.60;;;23.00;99.60;;;;;;4902715;29;20492;-84
2022/09/01 10:21:00;;;;;;;1.70;0.70;;;23.10;99.00;;;;;;4902311;29;20048;-82
2022/09/01 10:23:28;;;;;;;3.15;0.50;;;23.20;98.40;;;;;;4903318;29;20091;-84
2022/09/01 10:26:18;;;;;;;1.73;0.70;;;23.40;97.60;;;;;;4886818;29;20055;-85
2022/09/01 10:28:55;;;;;;;2.17;0.70;;;23.40;96.40;;;;;;4920274;29;20083;-87
2022/09/01 10:31:21;;;;;;;1.38;0.60;;;23.50;94.80;;;;;;4902658;29;20515;-87
2022/09/01 10:33:48;;;;;;;1.52;0.70;;;23.50;94.70;;;;;;4902915;29;20040;-86
2022/09/01 10:36:15;;;;;;;1.23;0.60;;;23.70;94.80;;;;;;4902253;29;20082;-82
2022/09/01 10:38:42;;;;;;;5.57;0.75;;;23.70;94.40;;;;;;4901853;29;20080;-88
2022/09/01 10:41:08;;;;;;;2.47;0.70;;;23.80;94.10;;;;;;4919743;29;20080;-86
2022/09/01 10:43:39;;;;;;;2.83;0.80;;;24.00;93.80;;;;;;4902475;29;20127;-86
2022/09/01 10:46:20;;;;;;;1.70;0.57;;;24.10;93.70;;;;;;4902582;29;20404;-89
2022/09/01 10:48:49;;;;;;;1.55;0.50;;;24.20;92.20;;;;;;4902515;29;20520;-84
2022/09/01 10:51:15;;;;;;;4.28;0.80;;;24.20;89.30;;;;;;4918511;29;20084;-87
2022/09/01 10:53:49;;;;;;;4.85;0.80;;;24.40;88.20;;;;;;4902126;29;20404;-85
2022/09/01 10:56:26;;;;;;;3.60;0.60;;;24.50;88.50;;;;;;4902212;29;20076;-85
2022/09/01 10:59:05;;;;;;;3.10;0.75;;;24.60;87.30;;;;;;4902969;29;20052;-88
2022/09/01 11:01:40;;;;;;;2.83;0.70;;;24.50;85.80;;;;;;4902381;29;20496;-87
2022/09/01 11:04:07;;;;;;;3.60;0.75;;;24.40;83.90;;;;;;4902485;29;20214;-87
2022/09/01 11:06:42;;;;;;;4.20;0.70;;;24.10;83.30;;;;;;4901921;29;20044;-87
2022/09/01 11:09:22;;;;;;;3.53;0.70;;;23.80;81.70;;;;;;4886247;29;20484;-86
2022/09/01 11:12:00;;;;;;;6.57;0.90;;;23.60;81.80;;;;;;4918432;29;20040;-86
2022/09/01 11:14:26;;;;;;;1.63;0.50;;;23.40;83.20;;;;;;4919318;29;20396;-85
2022/09/01 11:17:12;;;;;;;1.80;0.68;;;23.30;83.10;;;;;;4918733;29;20036;-86
2022/09/01 11:19:57;;;;;;;1.95;0.70;;;23.00;84.60;;;;;;4885915;29;20122;-87
2022/09/01 11:22:33;;;;;;;2.42;0.75;;;23.00;85.90;;;;;;4918500;29;20048;-87
2022/09/01 11:25:08;;;;;;;1.50;0.60;;;23.10;85.20;;;;;;4901363;29;20048;-88
2022/09/01 11:27:48;;;;;;;2.95;0.60;;;23.30;81.80;;;;;;4900829;29;20115;-86
2022/09/01 11:30:36;;;;;;;3.10;0.60;;;23.60;80.50;;;;;;4918153;29;20385;-83
2022/09/01 11:33:36;;;;;;;1.73;0.60;;;23.80;81.20;;;;;;4917795;29;20051;-85
2022/09/01 11:36:06;;;;;;;2.47;0.80;;;24.30;80.40;;;;;;4901540;29;20044;-85
2022/09/01 11:38:49;;;;;;;1.98;0.70;;;24.40;79.60;;;;;;4901790;29;20075;-85
2022/09/01 11:41:27;;;;;;;1.25;0.60;;;24.40;78.50;;;;;;4901233;29;20052;-88
2022/09/01 11:43:56;;;;;;;2.75;0.95;;;24.60;78.00;;;;;;4918558;29;20044;-88
2022/09/01 11:46:27;;;;;;;0.63;0.50;;;24.80;76.90;;;;;;4901196;29;20040;-86
2022/09/01 11:48:54;;;;;;;3.25;0.77;;;25.10;74.40;;;;;;4918496;29;20096;-85
2022/09/01 11:51:20;;;;;;;1.65;0.52;;;25.20;74.90;;;;;;4901293;29;20058;-88
2022/09/01 11:53:46;;;;;;;1.15;0.40;;;25.30;74.00;;;;;;4884966;29;20143;-86
2022/09/01 11:56:19;;;;;;;1.17;0.70;;;25.60;73.90;;;;;;4918215;29;20040;-88
2022/09/01 11:58:45;;;;;;;2.55;0.60;;;25.70;74.10;;;;;;4901193;29;20052;-87
2022/09/01 12:01:18;;;;;;;1.85;0.70;;;25.60;73.70;;;;;;4901142;29;20044;-81
2022/09/01 12:03:45;;;;;;;1.90;0.65;;;25.60;74.60;;;;;;4900829;29;20032;-81
2022/09/01 12:06:23;;;;;;;5.15;0.63;;;25.80;75.20;;;;;;4900801;29;20050;-88
2022/09/01 12:09:03;;;;;;;2.60;0.60;;;26.00;73.10;;;;;;4885107;29;20083;-83
2022/09/01 12:11:34;;;;;;;1.65;0.50;;;26.20;71.90;;;;;;4885691;29;20048;-81
2022/09/01 12:14:07;;;;;;;1.55;0.70;;;26.40;72.30;;;;;;4900989;29;20048;-81
2022/09/01 12:16:36;;;;;;;2.30;0.50;;;26.60;72.70;;;;;;4917883;29;20036;-82
2022/09/01 12:19:04;;;;;;;4.00;0.60;;;26.60;72.50;;;;;;4901063;29;20044;-86
2022/09/01 12:21:33;;;;;;;2.97;0.60;;;26.30;71.10;;;;;;4902060;29;20040;-88
2022/09/01 12:24:19;;;;;;;1.58;0.65;;;26.30;70.90;;;;;;4900674;29;20047;-84
2022/09/01 12:26:48;;;;;;;2.15;0.70;;;26.40;72.00;;;;;;4900773;29;20068;-88
2022/09/01 12:29:15;;;;;;;2.47;0.68;;;26.40;71.00;;;;;;4918482;29;20079;-86
2022/09/01 12:31:43;;;;;;;2.65;0.60;;;26.40;70.60;;;;;;4900709;29;20111;-85
2022/09/01 12:34:25;;;;;;;2.38;0.70;;;26.30;69.80;;;;;;4900694;29;20052;-87
2022/09/01 12:37:03;;;;;;;2.30;0.65;;;26.10;70.50;;;;;;4900991;29;20055;-86
2022/09/01 12:39:50;;;;;;;7.03;0.60;;;26.00;71.30;;;;;;4901059;29;20048;-85
2022/09/01 12:42:28;;;;;;;3.25;0.75;;;25.90;71.30;;;;;;4888743;29;20088;-87
2022/09/01 12:45:03;;;;;;;3.58;0.50;;;25.70;70.40;;;;;;4913219;29;20512;-85
2022/09/01 12:47:35;;;;;;;3.25;0.88;;;25.50;68.30;;;;;;4933034;29;20040;-84
2022/09/01 12:50:11;;;;;;;2.80;0.70;;;25.30;69.50;;;;;;4916762;29;20048;-86
2022/09/01 12:52:49;;;;;;;1.98;0.65;;;25.30;69.60;;;;;;4900651;29;20063;-84
2022/09/01 12:55:18;;;;;;;2.08;0.57;;;25.50;71.00;;;;;;4926131;29;20441;-87
2022/09/01 12:57:51;;;;;;;1.80;0.75;;;25.80;70.10;;;;;;4905543;29;20134;-86
2022/09/01 13:00:24;;;;;;;5.25;1.00;;;26.10;69.30;;;;;;4920426;29;20519;-84
2022/09/01 13:02:54;;;;;;;4.68;0.60;;;26.10;67.70;;;;;;4920829;29;20044;-86
2022/09/01 13:05:51;;;;;;;3.55;0.50;;;26.10;67.70;;;;;;4921689;29;20048;-85
2022/09/01 13:08:19;;;;;;;2.88;0.70;;;26.20;67.50;;;;;;4920385;29;20227;-85
2022/09/01 13:10:52;;;;;;;9.35;1.08;;;25.80;67.00;;;;;;4903960;29;20117;-86
2022/09/01 13:13:19;;;;;;;3.28;1.00;;;25.50;68.10;;;;;;4903460;29;20059;-88
2022/09/01 13:15:49;;;;;;;3.05;0.60;;;25.40;68.40;;;;;;4902976;29;20512;-87
2022/09/01 13:18:15;;;;;;;4.20;0.50;;;25.50;68.70;;;;;;4920390;29;20048;-85
2022/09/01 13:20:41;;;;;;;2.17;0.50;;;25.50;69.60;;;;;;4903540;29;20040;-85
2022/09/01 13:23:08;;;;;;;4.85;1.10;;;25.70;69.40;;;;;;4920373;29;20560;-86
2022/09/01 13:25:34;;;;;;;3.03;0.60;;;25.70;68.20;;;;;;4902876;29;20051;-85
2022/09/01 13:28:01;;;;;;;3.38;0.63;;;25.80;67.50;;;;;;4920061;29;20492;-86
2022/09/01 13:30:28;;;;;;;17.30;1.83;;;25.80;67.10;;;;;;4903707;29;20468;-87
2022/09/01 13:32:55;;;;;;;4.10;0.60;;;26.00;68.70;;;;;;4903665;29;20047;-87
2022/09/01 13:35:21;;;;;;;1.70;0.63;;;26.00;67.90;;;;;;4903457;29;20048;-87
2022/09/01 13:37:48;;;;;;;2.03;0.60;;;25.80;67.10;;;;;;4903366;29;20488;-86
2022/09/01 13:40:15;;;;;;;3.70;0.73;;;25.50;66.60;;;;;;4903355;29;20068;-90
2022/09/01 13:42:53;;;;;;;4.35;0.60;;;25.30;67.50;;;;;;4920354;29;20040;-85
2022/09/01 13:45:23;;;;;;;2.15;0.50;;;25.20;68.30;;;;;;4903401;29;20063;-86
2022/09/01 13:47:49;;;;;;;2.20;0.60;;;25.40;68.00;;;;;;4921300;29;20036;-85
2022/09/01 13:50:17;;;;;;;2.47;1.05;;;25.60;67.90;;;;;;4903296;29;20047;-85
2022/09/01 13:52:46;;;;;;;1.60;0.50;;;25.80;66.70;;;;;;4902262;29;20139;-85
2022/09/01 13:55:24;;;;;;;4.30;0.70;;;25.90;65.70;;;;;;4887157;29;20040;-86
2022/09/01 13:57:49;;;;;;;3.53;0.47;;;26.00;65.60;;;;;;4902914;29;20048;-84
2022/09/01 14:00:23;;;;;;;2.40;0.55;;;26.10;64.70;;;;;;4902661;29;20052;-88
2022/09/01 14:02:51;;;;;;;2.22;0.57;;;26.10;64.80;;;;;;4902673;29;20404;-84
2022/09/01 14:05:31;;;;;;;5.43;0.60;;;26.10;64.20;;;;;;4920128;29;20043;-85
2022/09/01 14:07:58;;;;;;;3.25;0.70;;;26.20;65.10;;;;;;4920161;29;20417;-85
2022/09/01 14:10:25;;;;;;;2.33;0.70;;;26.30;65.00;;;;;;4919624;29;20499;-87
2022/09/01 14:12:51;;;;;;;3.72;0.70;;;26.30;64.90;;;;;;4903662;29;20087;-88
2022/09/01 14:15:18;;;;;;;2.85;0.70;;;26.40;65.40;;;;;;4903008;29;20096;-85
2022/09/01 14:17:46;;;;;;;2.40;0.60;;;26.50;64.60;;;;;;4902917;29;20052;-84
2022/09/01 14:20:17;;;;;;;1.27;0.45;;;26.50;63.00;;;;;;4919647;29;20052;-85
2022/09/01 14:22:42;;;;;;;2.17;0.70;;;26.40;62.90;;;;;;4886972;29;20135;-87
2022/09/01 14:25:09;;;;;;;2.13;0.68;;;26.40;62.40;;;;;;4919396;29;20080;-86
2022/09/01 14:27:35;;;;;;;5.90;0.60;;;26.50;62.60;;;;;;4919582;29;20044;-85
2022/09/01 14:30:01;;;;;;;1.20;0.40;;;26.40;62.70;;;;;;4919491;29;20088;-87
2022/09/01 14:32:28;;;;;;;1.40;0.50;;;26.20;63.10;;;;;;4901722;29;20051;-86
2022/09/01 14:34:55;;;;;;;3.67;0.50;;;26.00;63.50;;;;;;4871335;29;20475;-87
2022/09/01 14:37:22;;;;;;;2.75;0.70;;;26.00;63.60;;;;;;4902288;29;20052;-86
2022/09/01 14:39:53;;;;;;;2.42;0.60;;;26.00;62.80;;;;;;4919198;29;20088;-86
2022/09/01 14:42:19;;;;;;;3.72;0.50;;;26.10;62.70;;;;;;4902102;29;20036;-85
2022/09/01 14:44:46;;;;;;;1.27;0.60;;;26.10;62.80;;;;;;4901512;29;20040;-85
2022/09/01 14:47:13;;;;;;;3.72;0.95;;;26.20;63.40;;;;;;4901923;29;20043;-89
2022/09/01 14:49:39;;;;;;;2.33;0.50;;;26.20;62.80;;;;;;4885411;29;20048;-89
2022/09/01 14:52:07;;;;;;;1.52;0.60;;;26.10;62.50;;;;;;4901307;29;20377;-91
2022/09/01 14:54:34;;;;;;;2.63;0.70;;;26.10;62.00;;;;;;4901230;29;20048;-88
2022/09/01 14:57:00;;;;;;;2.00;0.60;;;26.00;61.60;;;;;;4901215;29;20492;-88
2022/09/01 14:59:26;;;;;;;2.47;0.60;;;25.90;61.80;;;;;;4900988;29;20083;-85
2022/09/01 15:01:52;;;;;;;1.23;0.60;;;26.00;62.60;;;;;;4901633;29;20102;-89
2022/09/01 15:04:18;;;;;;;1.27;0.50;;;26.20;62.90;;;;;;4901019;29;20042;-88
2022/09/01 15:06:43;;;;;;;2.70;0.70;;;26.20;62.50;;;;;;4919017;29;20493;-86
2022/09/01 15:09:09;;;;;;;4.53;0.60;;;26.30;62.40;;;;;;4902035;29;20095;-88
2022/09/01 15:11:35;;;;;;;2.90;0.50;;;26.40;62.40;;;;;;4902313;29;20121;-82
2022/09/01 15:14:00;;;;;;;1.65;0.63;;;26.40;61.40;;;;;;4902817;29;20123;-86
2022/09/01 15:16:27;;;;;;;2.22;0.70;;;26.40;61.00;;;;;;4902031;29;20496;-88
2022/09/01 15:18:56;;;;;;;4.47;0.65;;;26.40;60.80;;;;;;4902920;29;20511;-88
2022/09/01 15:21:25;;;;;;;3.35;0.60;;;26.50;61.10;;;;;;4886782;29;20404;-86
2022/09/01 15:23:52;;;;;;;1.73;0.60;;;26.50;61.40;;;;;;4902445;29;20424;-86
2022/09/01 15:26:19;;;;;;;3.33;0.50;;;26.60;62.00;;;;;;4902299;29;20052;-91
2022/09/01 15:28:46;;;;;;;2.75;0.80;;;26.60;61.70;;;;;;4918627;29;20047;-88
2022/09/01 15:31:14;;;;;;;3.35;0.90;;;26.70;61.30;;;;;;4886865;29;20501;-86
2022/09/01 15:33:40;;;;;;;2.95;0.60;;;26.60;60.30;;;;;;4919123;29;20092;-87
2022/09/01 15:36:07;;;;;;;2.38;0.60;;;26.50;60.40;;;;;;4902650;29;20603;-86
2022/09/01 15:38:33;;;;;;;1.90;0.80;;;26.30;60.50;;;;;;4902091;29;20052;-90
2022/09/01 15:41:00;;;;;;;2.00;0.50;;;26.10;59.90;;;;;;4902103;29;20083;-87
2022/09/01 15:43:29;;;;;;;2.78;0.68;;;26.10;61.10;;;;;;4920223;29;20048;-86
2022/09/01 15:45:57;;;;;;;1.17;0.52;;;26.10;61.60;;;;;;4919182;29;20040;-88
2022/09/01 15:48:24;;;;;;;3.95;0.50;;;26.10;60.70;;;;;;4886585;29;20040;-89
2022/09/01 15:50:49;;;;;;;1.95;0.80;;;26.00;60.20;;;;;;4902202;29;20036;-90
2022/09/01 15:53:15;;;;;;;3.75;0.77;;;26.10;60.60;;;;;;4887136;29;20139;-87
2022/09/01 15:55:46;;;;;;;4.43;0.90;;;26.00;60.40;;;;;;4920070;29;20069;-86
2022/09/01 15:58:14;;;;;;;2.78;0.60;;;25.90;60.80;;;;;;4902138;29;20040;-89
2022/09/01 16:00:42;;;;;;;3.78;0.70;;;25.90;61.10;;;;;;4902387;29;20539;-90
2022/09/01 16:03:08;;;;;;;4.45;0.50;;;26.00;61.10;;;;;;4886997;29;20074;-89
2022/09/01 16:05:36;;;;;;;3.03;0.50;;;25.90;61.20;;;;;;4901906;29;20087;-85
2022/09/01 16:08:08;;;;;;;1.92;0.65;;;26.00;61.00;;;;;;4886945;29;20123;-86